Startpagina
METAR-TAF:

METAR-TAF

Vliegvelden :

Gilze-Rijen, Nederland

Vliegbasis Gilze-Rijen

breedte: 51-34N, lengte: 004-56E, hoogte: 15 m

Actueel weer

Dit bericht is 38 minuten geleden gemaakt, om 10:25 UTC
Wind 11 kt uit het oostzuidoosten, variërend tussen het oostnoordoosten en het zuidzuidoosten
Temperatuur 24°C
Vochtigheid 47%
Druk 1021 hPa
Zicht 10 km of meer

METAR: EHGR 261025Z AUTO 12011KT 060V150 9999 NCD 24/12 Q1021 BLU

Tijdstip: 13:03 (11:03 UTC)


TAF: ontbreekt

Waarnemingen en weersverwachtingen van meer dan 4000 vliegvelden (METAR en TAF).

De beschikbare stations zijn de gele en rode punten op de kaart.

Ga met uw muis naar het station om de naam te zien.

Klik dan om waarnemingen en weersverwachtingen te zien.

kaart wijzigen: klik op de groene knoppen met een zwart kruis om in te zoomen, op de groene knop met een streepje om uit te zoomen of op de groene pijlen voor aangrenzende kaarten.


METAR-TAF: